Andover, MA (05544)

7:18 PM EDT on October 22, 2014 (GMT -0400)
Haggetts Pond | Change Station
CLOSE
Current Station
Personal Weather Station
Location: Andover, MA
Elevation: 121 ft
Nearby Weather Stations

Elev 121 ft 42.64 °N, 71.20 °W | Updated 3 seconds ago

Rain
Rain
49.2 °F
Feels Like 46 °F
N
6.7
Wind Variable Wind from NNW
Gusts 22.0 mph

Today
High -- | Low -- °F
--% Chance of Precip.
Yesterday
High -- | Low -- °F
Precip. -- in
7:06 AM 5:51 PM
Waning Crescent, 1% visible
Pressure 29.92 in
Visibility 3.0 miles
Clouds Mostly Cloudy 800 ft
Overcast 1200 ft
Windchill 46 °F
Dew Point 48 °F
Humidity 96%
Rainfall -999.00 in
Snow Depth Not available.
UV 0 out of 12
Pollen .30 out of 12
Ozone Good
PM2.5 Good
Flu Activity No Activity
SPECI KLWM 222307Z 04024G37KT 3SM -RA BR BKN008 OVC012 10/08 A2992 RMK AO2 PK WND 03037/2259 P0000 T01000083

More Conditions Fewer Conditions

Pressure 29.92 in
Visibility 3.0 miles
Clouds Mostly Cloudy 800 ft
Overcast 1200 ft
Windchill 46 °F
Dew Point 48 °F
Humidity 96%
Rainfall -999.00 in
Snow Depth Not available.
UV 0 out of 12
Pollen .30 out of 12
Ozone Good
PM2.5 Good
Flu Activity No Activity
SPECI KLWM 222307Z 04024G37KT 3SM -RA BR BKN008 OVC012 10/08 A2992 RMK AO2 PK WND 03037/2259 P0000 T01000083

More Conditions Fewer Conditions

10-Day Weather Forecast

Almanac

Astronomy

Oct. 22, 2014 Rise Set
Actual Time 7:06 AM EDT 5:51 PM EDT
Civil Twilight 6:37 AM EDT 6:20 PM EDT
Nautical Twilight 6:04 AM EDT 6:53 PM EDT
Astronomical Twilight 5:31 AM EDT 7:25 PM EDT
Moon 5:42 AM EDT 5:17 PM EDT
Length of Visible Light 11h 42m
Length of Day
10h 45m
Tomorrow will be 2m 43s shorter.
Waning Crescent, 1% of the Moon is Illuminated
Today
Waning Crescent
Oct 23
New
Oct 30
First Quarter
Nov 6
Full
Nov 14
Last Quarter

Today's Extremes

State Highs State Lows

Community

WunderPhotos

Upload Photos

1,764,075 photos uploaded!

WunderBlogs® & News

Nearby

Air Quality

  Air Quality AQ Index Pollutant
Yesterday Good
PM2.5
Yesterday Good
OZONE
Current Good
OZONE
Current Good
PM2.5
Wednesday Good
PM2.5
Thursday Good
PM2.5

Snow Depth

Station Depth Elevation
No new snow has been reported.

Earthquake Activity

City Distance Mag. Time & Date
No recent earthquake activity has been reported nearby.
Minimum magnitude displayed is 2.5.

Coastal Water Temperatures

Place Temperature
Boston, MA 57.0 °F
Fall River, MA 63.0 °F

Nearby Weather Stations